Time;durP1;ratioP1;P1;durP2;ratioP2;P2;SDS_P1;SDS_P2;PMS_P1;PMS_P2;Temp;Humidity;BMP_temperature;BMP_pressure;BME280_temperature;BME280_humidity;BME280_pressure;Samples;Min_cycle;Max_cycle;Signal;HPM_P1;HPM_P2
2020/12/22 00:00:33;;;;;;;11.27;10.10;;;12.60;97.60;;;;;;4981079;28;20109;-87
2020/12/22 00:02:58;;;;;;;10.10;9.10;;;12.70;97.70;;;;;;4986365;28;20394;-87
2020/12/22 00:05:23;;;;;;;11.20;10.10;;;12.70;97.70;;;;;;4990042;28;20030;-88
2020/12/22 00:07:49;;;;;;;10.75;9.65;;;12.70;97.60;;;;;;4991683;28;20101;-88
2020/12/22 00:10:15;;;;;;;11.75;10.55;;;12.80;97.60;;;;;;4995856;28;20030;-87
2020/12/22 00:12:40;;;;;;;10.70;9.60;;;12.80;97.60;;;;;;4996199;28;20117;-87
2020/12/22 00:15:07;;;;;;;10.82;9.73;;;12.80;97.60;;;;;;4978565;28;20106;-87
2020/12/22 00:17:33;;;;;;;10.38;9.27;;;12.80;97.60;;;;;;4984071;28;20117;-88
2020/12/22 00:19:58;;;;;;;11.05;9.85;;;12.80;97.60;;;;;;4978939;28;20113;-87
2020/12/22 00:22:24;;;;;;;11.50;10.10;;;12.90;97.60;;;;;;4978431;28;20026;-87
2020/12/22 00:24:49;;;;;;;11.85;10.38;;;12.80;97.60;;;;;;4978772;28;20034;-87
2020/12/22 00:27:15;;;;;;;10.10;9.10;;;12.90;97.60;;;;;;4976184;28;20084;-87
2020/12/22 00:29:40;;;;;;;9.85;8.85;;;12.90;97.60;;;;;;4973596;28;20026;-88
2020/12/22 00:32:06;;;;;;;10.73;9.63;;;12.90;97.60;;;;;;4975597;28;20074;-87
2020/12/22 00:34:31;;;;;;;9.30;8.32;;;12.90;97.60;;;;;;4969759;28;20033;-87
2020/12/22 00:36:59;;;;;;;9.57;8.48;;;12.90;97.70;;;;;;4980266;28;20030;-88
2020/12/22 00:39:25;;;;;;;8.38;7.20;;;12.90;97.70;;;;;;5000905;28;20053;-88
2020/12/22 00:41:56;;;;;;;8.93;6.65;;;13.00;97.70;;;;;;4975981;28;20081;-88
2020/12/22 00:44:22;;;;;;;7.32;6.68;;;13.10;97.70;;;;;;4994380;28;20023;-86
2020/12/22 00:46:48;;;;;;;7.03;6.32;;;13.10;97.70;;;;;;4993053;28;20038;-88
2020/12/22 00:49:13;;;;;;;6.82;6.15;;;13.10;97.60;;;;;;4996458;28;20117;-88
2020/12/22 00:51:39;;;;;;;6.15;5.55;;;13.10;97.60;;;;;;4990461;28;20394;-88
2020/12/22 00:54:04;;;;;;;6.90;6.15;;;13.10;97.60;;;;;;4989657;28;20121;-88
2020/12/22 00:56:30;;;;;;;5.18;4.75;;;13.20;97.60;;;;;;4998529;28;20401;-87
2020/12/22 00:58:56;;;;;;;5.25;4.82;;;13.20;97.50;;;;;;4995059;28;20052;-87
2020/12/22 01:01:21;;;;;;;5.57;5.07;;;13.20;97.50;;;;;;4999289;28;20033;-88
2020/12/22 01:03:47;;;;;;;4.78;4.35;;;13.30;97.40;;;;;;5002940;28;20030;-88
2020/12/22 01:06:15;;;;;;;5.82;5.30;;;13.20;97.40;;;;;;4998242;28;20464;-87
2020/12/22 01:08:40;;;;;;;3.67;3.38;;;13.30;97.40;;;;;;5002240;28;20077;-88
2020/12/22 01:11:06;;;;;;;4.32;3.95;;;13.30;97.40;;;;;;5002177;28;20034;-88
2020/12/22 01:13:31;;;;;;;5.40;4.90;;;13.30;97.30;;;;;;5018670;28;20014;-87
2020/12/22 01:15:57;;;;;;;4.28;3.88;;;13.40;97.30;;;;;;5007972;28;20114;-87
2020/12/22 01:18:23;;;;;;;3.78;3.47;;;13.30;97.20;;;;;;4991489;28;20058;-88
2020/12/22 01:20:49;;;;;;;4.22;3.83;;;13.40;97.20;;;;;;4999962;28;20038;-87
2020/12/22 01:23:15;;;;;;;3.58;3.28;;;13.30;97.20;;;;;;5009524;28;20014;-88
2020/12/22 01:25:41;;;;;;;3.47;3.15;;;13.40;97.20;;;;;;5019619;28;20037;-87
2020/12/22 01:28:06;;;;;;;3.58;3.28;;;13.30;97.20;;;;;;4998860;28;20042;-87
2020/12/22 01:30:32;;;;;;;2.65;2.45;;;13.30;97.20;;;;;;5001657;28;20026;-87
2020/12/22 01:32:57;;;;;;;3.08;2.78;;;13.30;97.20;;;;;;4999313;28;20038;-88
2020/12/22 01:35:23;;;;;;;3.63;3.33;;;13.30;97.20;;;;;;5001220;28;20104;-87
2020/12/22 01:37:49;;;;;;;3.22;2.85;;;13.30;97.30;;;;;;5010278;28;20026;-87
2020/12/22 01:40:14;;;;;;;3.20;2.90;;;13.30;97.30;;;;;;5001906;28;20120;-87
2020/12/22 01:42:43;;;;;;;2.97;2.55;;;13.30;97.30;;;;;;5008670;28;20023;-88
2020/12/22 01:45:11;;;;;;;2.40;2.20;;;13.30;97.30;;;;;;5012798;28;20567;-87
2020/12/22 01:47:43;;;;;;;3.92;2.58;;;13.30;97.30;;;;;;5004713;28;20481;-86
2020/12/22 01:50:09;;;;;;;;;;;13.40;97.40;;;;;;5018701;28;20507;-87
2020/12/22 01:52:34;;;;;;;3.85;1.85;;;13.30;97.30;;;;;;5007066;28;19910;-87
2020/12/22 01:55:00;;;;;;;1.80;1.42;;;13.30;97.40;;;;;;5013007;28;20398;-87
2020/12/22 01:57:25;;;;;;;2.45;1.70;;;13.30;97.40;;;;;;5019429;28;20045;-89
2020/12/22 01:59:51;;;;;;;1.88;1.60;;;13.30;97.30;;;;;;4999747;28;20030;-88
2020/12/22 02:02:16;;;;;;;1.88;1.55;;;13.40;97.40;;;;;;5000750;28;20106;-88
2020/12/22 02:04:42;;;;;;;1.50;1.10;;;13.40;97.40;;;;;;5001286;28;20061;-87
2020/12/22 02:07:12;;;;;;;1.52;1.20;;;13.40;97.40;;;;;;4999590;28;20064;-89
2020/12/22 02:09:39;;;;;;;1.20;0.80;;;13.30;97.30;;;;;;5000159;28;20026;-88
2020/12/22 02:12:04;;;;;;;0.93;0.60;;;13.40;97.40;;;;;;5001181;28;20030;-88
2020/12/22 02:14:30;;;;;;;0.90;0.60;;;13.40;97.40;;;;;;4998699;28;20121;-87
2020/12/22 02:16:56;;;;;;;1.50;0.60;;;13.40;97.40;;;;;;4999328;28;20034;-88
2020/12/22 02:19:23;;;;;;;0.80;0.50;;;13.40;97.30;;;;;;4993803;28;20315;-88
2020/12/22 02:21:48;;;;;;;0.88;0.60;;;13.40;97.30;;;;;;5000158;28;20444;-88
2020/12/22 02:24:14;;;;;;;1.60;0.50;;;13.40;97.30;;;;;;4992187;28;20029;-88
2020/12/22 02:26:40;;;;;;;0.77;0.45;;;13.40;97.30;;;;;;4991123;28;20041;-88
2020/12/22 02:29:05;;;;;;;0.80;0.50;;;13.50;97.30;;;;;;5011329;28;20048;-87
2020/12/22 02:31:31;;;;;;;1.10;0.50;;;13.40;97.20;;;;;;5000197;28;20056;-88
2020/12/22 02:33:57;;;;;;;1.20;0.50;;;13.40;97.20;;;;;;4989847;28;20479;-89
2020/12/22 02:36:22;;;;;;;0.68;0.47;;;13.40;97.50;;;;;;4992048;28;20033;-88
2020/12/22 02:38:49;;;;;;;1.05;0.40;;;13.40;97.30;;;;;;5000310;28;20132;-88
2020/12/22 02:41:14;;;;;;;1.02;0.50;;;13.40;97.30;;;;;;5000333;28;20025;-89
2020/12/22 02:43:40;;;;;;;0.95;0.47;;;13.40;97.30;;;;;;5000102;28;20371;-90
2020/12/22 02:46:06;;;;;;;1.00;0.50;;;13.50;97.20;;;;;;5015760;28;20022;-90
2020/12/22 02:48:32;;;;;;;0.80;0.50;;;13.50;97.20;;;;;;4984923;28;20030;-89
2020/12/22 02:50:58;;;;;;;0.93;0.60;;;13.40;97.20;;;;;;5001527;28;20093;-89
2020/12/22 02:53:23;;;;;;;1.45;0.60;;;13.50;97.10;;;;;;5013553;28;20105;-89
2020/12/22 02:55:49;;;;;;;0.75;0.50;;;13.50;97.10;;;;;;4996631;28;20025;-89
2020/12/22 02:58:15;;;;;;;2.00;0.52;;;13.50;97.00;;;;;;4988960;28;20097;-89
2020/12/22 03:00:42;;;;;;;0.93;0.50;;;13.60;96.90;;;;;;5009097;28;20072;-88
2020/12/22 03:03:07;;;;;;;1.58;0.60;;;13.60;96.80;;;;;;5009018;28;20094;-89
2020/12/22 03:05:33;;;;;;;1.10;0.60;;;13.50;96.80;;;;;;5004366;28;20053;-88
2020/12/22 03:07:58;;;;;;;1.02;0.52;;;13.50;96.80;;;;;;4995887;28;20034;-88
2020/12/22 03:10:24;;;;;;;1.15;0.60;;;13.50;96.80;;;;;;5001881;28;20053;-89
2020/12/22 03:12:50;;;;;;;1.83;0.90;;;13.50;96.80;;;;;;5033304;28;20034;-88
2020/12/22 03:15:16;;;;;;;1.20;0.75;;;13.50;96.80;;;;;;5000063;28;20401;-88
2020/12/22 03:17:42;;;;;;;1.88;0.90;;;13.50;96.90;;;;;;4998133;28;20026;-89
2020/12/22 03:20:10;;;;;;;1.48;1.10;;;13.50;96.80;;;;;;4998759;28;20022;-89
2020/12/22 03:22:37;;;;;;;1.65;1.17;;;13.50;96.90;;;;;;4998801;28;20026;-88
2020/12/22 03:25:03;;;;;;;1.88;1.67;;;13.40;96.90;;;;;;4997989;28;20022;-89
2020/12/22 03:27:29;;;;;;;2.03;1.48;;;13.40;97.00;;;;;;5009446;28;20042;-88
2020/12/22 03:29:54;;;;;;;3.80;1.92;;;13.40;96.90;;;;;;4998248;28;20165;-89
2020/12/22 03:32:20;;;;;;;1.90;1.70;;;13.30;97.00;;;;;;5015043;28;20117;-89
2020/12/22 03:34:45;;;;;;;2.50;2.28;;;13.30;97.10;;;;;;5000245;28;20041;-89
2020/12/22 03:37:11;;;;;;;3.20;2.30;;;13.20;97.10;;;;;;5014680;28;20060;-90
2020/12/22 03:39:37;;;;;;;3.65;2.30;;;13.20;97.20;;;;;;4991036;28;20474;-89
2020/12/22 03:42:02;;;;;;;2.95;2.15;;;13.20;97.30;;;;;;4980636;28;20077;-89
2020/12/22 03:44:28;;;;;;;2.25;2.05;;;13.20;97.30;;;;;;4997719;28;20096;-88
2020/12/22 03:46:54;;;;;;;2.63;2.42;;;13.20;97.40;;;;;;5016386;28;20042;-89
2020/12/22 03:49:19;;;;;;;3.17;2.88;;;13.20;97.50;;;;;;4994100;28;20471;-89
2020/12/22 03:51:45;;;;;;;3.00;2.70;;;13.20;97.50;;;;;;4993029;28;20022;-88
2020/12/22 03:54:11;;;;;;;4.65;3.53;;;13.20;97.50;;;;;;5006776;28;20054;-89
2020/12/22 03:56:38;;;;;;;4.50;4.07;;;13.20;97.50;;;;;;5001774;28;20105;-89
2020/12/22 03:59:04;;;;;;;4.85;4.45;;;13.20;97.60;;;;;;5015728;28;20149;-88
2020/12/22 04:01:29;;;;;;;5.00;4.50;;;13.20;97.60;;;;;;4997350;28;20057;-88
2020/12/22 04:03:55;;;;;;;5.40;4.57;;;13.10;97.60;;;;;;4996070;28;20033;-88
2020/12/22 04:06:20;;;;;;;5.13;4.72;;;13.20;97.60;;;;;;4993804;28;20076;-89
2020/12/22 04:08:50;;;;;;;4.57;4.18;;;13.10;97.60;;;;;;4988380;28;20064;-88
2020/12/22 04:11:16;;;;;;;5.43;4.57;;;13.10;97.60;;;;;;4998925;28;20117;-88
2020/12/22 04:13:41;;;;;;;6.80;3.95;;;13.10;97.70;;;;;;4997505;28;20057;-89
2020/12/22 04:16:07;;;;;;;5.80;5.07;;;13.10;97.70;;;;;;4992827;28;20089;-88
2020/12/22 04:18:32;;;;;;;5.80;4.90;;;13.10;97.80;;;;;;4990341;28;20359;-88
2020/12/22 04:20:58;;;;;;;6.00;5.43;;;13.00;97.70;;;;;;4979554;28;20033;-89
2020/12/22 04:23:25;;;;;;;6.00;5.43;;;13.00;97.80;;;;;;4991292;28;20101;-88
2020/12/22 04:25:51;;;;;;;6.30;5.70;;;13.00;97.90;;;;;;4998372;28;20037;-89
2020/12/22 04:28:17;;;;;;;6.15;5.55;;;13.00;97.90;;;;;;4999063;28;20030;-88
2020/12/22 04:30:42;;;;;;;6.45;5.85;;;13.00;98.00;;;;;;4994776;28;20023;-89
2020/12/22 04:33:08;;;;;;;7.05;5.88;;;13.10;98.00;;;;;;4998397;28;20040;-89
2020/12/22 04:35:34;;;;;;;6.30;5.68;;;13.00;98.00;;;;;;4997157;28;20025;-88
2020/12/22 04:38:01;;;;;;;5.85;5.25;;;13.00;98.00;;;;;;4991659;28;20033;-89
2020/12/22 04:40:26;;;;;;;5.47;4.57;;;13.00;98.00;;;;;;4986693;28;20565;-89
2020/12/22 04:42:54;;;;;;;4.82;4.32;;;13.10;98.10;;;;;;4997939;28;20066;-89
2020/12/22 04:45:20;;;;;;;4.30;3.90;;;13.10;98.00;;;;;;4995263;28;20026;-89
2020/12/22 04:47:46;;;;;;;3.40;3.10;;;13.10;98.00;;;;;;4992783;28;20034;-90
2020/12/22 04:50:15;;;;;;;5.10;3.22;;;13.00;98.00;;;;;;4998420;28;20022;-88
2020/12/22 04:52:43;;;;;;;5.13;3.78;;;13.10;98.00;;;;;;5000158;28;20026;-89
2020/12/22 04:55:10;;;;;;;4.13;3.65;;;13.10;98.00;;;;;;4996713;28;20128;-89
2020/12/22 04:57:36;;;;;;;4.40;3.25;;;13.00;98.00;;;;;;4997364;28;20386;-89
2020/12/22 05:00:05;;;;;;;5.75;3.47;;;13.00;98.00;;;;;;4995665;28;20514;-89
2020/12/22 05:02:36;;;;;;;5.72;3.47;;;13.00;98.00;;;;;;4993467;28;20030;-90
2020/12/22 05:05:02;;;;;;;5.00;3.57;;;13.00;98.00;;;;;;5006058;28;20511;-88
2020/12/22 05:07:28;;;;;;;6.43;3.83;;;13.00;98.10;;;;;;4996677;28;20120;-88
2020/12/22 05:09:53;;;;;;;6.88;3.60;;;12.90;98.00;;;;;;4995067;28;20014;-88
2020/12/22 05:12:19;;;;;;;3.95;3.05;;;12.90;98.10;;;;;;4982616;28;20034;-88
2020/12/22 05:14:44;;;;;;;5.32;3.20;;;12.90;98.10;;;;;;4998578;28;20030;-89
2020/12/22 05:17:13;;;;;;;3.45;2.58;;;12.90;98.10;;;;;;4996878;28;20109;-88
2020/12/22 05:19:41;;;;;;;4.38;2.75;;;12.90;98.10;;;;;;4998172;28;20037;-88
2020/12/22 05:22:07;;;;;;;6.68;2.67;;;12.90;98.10;;;;;;4999974;28;20034;-88
2020/12/22 05:24:35;;;;;;;2.20;1.35;;;12.90;98.10;;;;;;4997118;28;20037;-88
2020/12/22 05:27:02;;;;;;;3.45;1.25;;;12.80;97.90;;;;;;4995279;28;20034;-88
2020/12/22 05:29:28;;;;;;;4.18;1.92;;;12.80;97.90;;;;;;4995019;28;20778;-89
2020/12/22 05:31:54;;;;;;;1.73;0.70;;;12.80;97.90;;;;;;5001293;28;20597;-88
2020/12/22 05:34:21;;;;;;;2.28;0.68;;;12.80;97.80;;;;;;4995575;28;20046;-89
2020/12/22 05:36:47;;;;;;;3.80;0.80;;;12.70;97.70;;;;;;5010242;28;20022;-90
2020/12/22 05:39:18;;;;;;;2.53;0.43;;;12.70;97.70;;;;;;4996330;28;20024;-88
2020/12/22 05:41:43;;;;;;;3.25;0.88;;;12.70;97.60;;;;;;5005827;28;20022;-88
2020/12/22 05:44:09;;;;;;;2.50;1.92;;;12.70;97.60;;;;;;5000047;28;20097;-89
2020/12/22 05:46:37;;;;;;;1.90;1.10;;;12.70;97.60;;;;;;4989353;28;20030;-89
2020/12/22 05:49:07;;;;;;;3.40;2.08;;;12.80;97.50;;;;;;4996154;28;20466;-88
2020/12/22 05:51:33;;;;;;;3.13;1.98;;;12.80;97.50;;;;;;5011981;28;20030;-89
2020/12/22 05:54:07;;;;;;;4.05;3.30;;;12.80;97.40;;;;;;5007240;28;20022;-89
2020/12/22 05:56:34;;;;;;;4.80;3.30;;;12.80;97.30;;;;;;5005451;28;20034;-89
2020/12/22 05:59:00;;;;;;;4.63;3.35;;;12.80;97.30;;;;;;4994489;28;20379;-89
2020/12/22 06:01:34;;;;;;;6.65;3.45;;;12.80;97.30;;;;;;5000953;28;20037;-89
2020/12/22 06:04:01;;;;;;;5.28;4.22;;;12.90;97.30;;;;;;5001166;28;20029;-89
2020/12/22 06:06:28;;;;;;;5.05;3.70;;;12.90;97.30;;;;;;4999346;28;20030;-89
2020/12/22 06:08:54;;;;;;;4.15;3.47;;;12.90;97.30;;;;;;5004005;28;20089;-89
2020/12/22 06:11:20;;;;;;;6.30;3.30;;;12.90;97.30;;;;;;4992559;28;20030;-89
2020/12/22 06:13:50;;;;;;;3.97;3.13;;;13.00;97.30;;;;;;5015286;28;20034;-90
2020/12/22 06:16:20;;;;;;;4.60;3.03;;;13.00;97.30;;;;;;5000544;28;20022;-88
2020/12/22 06:18:50;;;;;;;3.40;2.28;;;13.00;97.30;;;;;;5017845;28;20028;-90
2020/12/22 06:21:18;;;;;;;3.70;1.92;;;13.00;97.30;;;;;;5006814;28;20064;-86
2020/12/22 06:23:44;;;;;;;2.90;2.22;;;13.10;97.20;;;;;;5005018;28;20025;-88
2020/12/22 06:26:11;;;;;;;3.40;1.60;;;13.10;97.20;;;;;;5000289;28;20075;-88
2020/12/22 06:28:36;;;;;;;2.92;1.88;;;13.20;97.20;;;;;;5015589;28;20057;-87
2020/12/22 06:31:22;;;;;;;3.33;2.05;;;13.20;97.00;;;;;;5016290;28;20022;-87
2020/12/22 06:33:49;;;;;;;3.47;1.60;;;13.20;97.00;;;;;;5018026;28;20026;-87
2020/12/22 06:36:17;;;;;;;2.80;1.80;;;13.30;96.90;;;;;;5029964;28;20482;-88
2020/12/22 06:38:47;;;;;;;3.88;2.33;;;13.20;96.80;;;;;;5009645;28;20113;-87
2020/12/22 06:41:34;;;;;;;6.03;2.75;;;13.20;96.80;;;;;;5000460;28;20490;-88
2020/12/22 06:44:22;;;;;;;4.68;2.72;;;13.20;96.70;;;;;;4995711;28;20474;-87
2020/12/22 06:47:06;;;;;;;2.95;2.47;;;13.30;96.60;;;;;;4999138;28;20097;-88
2020/12/22 06:49:52;;;;;;;3.83;2.67;;;13.30;96.60;;;;;;4998876;28;20060;-88
2020/12/22 06:52:37;;;;;;;5.95;3.47;;;13.30;96.60;;;;;;4996251;28;20044;-88
2020/12/22 06:55:07;;;;;;;7.22;5.00;;;13.30;96.50;;;;;;5005439;28;20052;-89
2020/12/22 06:57:47;;;;;;;9.88;5.78;;;13.20;96.40;;;;;;4996507;28;20044;-88
2020/12/22 07:00:26;;;;;;;11.25;5.22;;;13.10;96.20;;;;;;5015585;28;20030;-87
2020/12/22 07:02:53;;;;;;;12.75;5.57;;;13.10;96.10;;;;;;5017740;28;20075;-88
2020/12/22 07:05:35;;;;;;;13.25;4.20;;;13.10;95.80;;;;;;5012663;28;20030;-88
2020/12/22 07:08:01;;;;;;;;;;;13.10;95.70;;;;;;5010815;28;20562;-88
2020/12/22 07:10:28;;;;;;;9.90;4.22;;;13.10;95.60;;;;;;4998802;28;19999;-88
2020/12/22 07:12:56;;;;;;;10.13;3.88;;;13.10;95.40;;;;;;5009161;28;20520;-88
2020/12/22 07:15:22;;;;;;;6.90;2.97;;;13.10;95.30;;;;;;5013253;28;20041;-88
2020/12/22 07:17:49;;;;;;;13.85;3.17;;;13.00;95.10;;;;;;5016960;28;20288;-88
2020/12/22 07:20:16;;;;;;;11.07;1.90;;;13.10;95.00;;;;;;5009234;28;20034;-89
2020/12/22 07:22:42;;;;;;;4.90;1.00;;;13.10;94.90;;;;;;4996092;28;20036;-89
2020/12/22 07:25:08;;;;;;;6.25;1.20;;;13.00;94.50;;;;;;5007389;28;20042;-89
2020/12/22 07:27:33;;;;;;;7.95;0.90;;;13.10;94.50;;;;;;5008223;28;20129;-88
2020/12/22 07:29:59;;;;;;;6.55;1.42;;;13.10;94.30;;;;;;5011295;28;20030;-89
2020/12/22 07:32:24;;;;;;;6.20;0.95;;;13.10;94.10;;;;;;5000022;28;20061;-89
2020/12/22 07:34:50;;;;;;;8.35;1.08;;;13.10;93.90;;;;;;4996422;28;20084;-90
2020/12/22 07:37:16;;;;;;;10.50;1.40;;;13.10;93.80;;;;;;5013925;28;20037;-88
2020/12/22 07:39:42;;;;;;;5.05;1.00;;;13.10;93.70;;;;;;4999452;28;20085;-90
2020/12/22 07:42:15;;;;;;;7.65;1.30;;;13.00;93.50;;;;;;4998159;28;20498;-90
2020/12/22 07:44:42;;;;;;;7.78;1.58;;;13.10;93.60;;;;;;5016181;28;20033;-88
2020/12/22 07:47:09;;;;;;;12.77;2.15;;;13.00;93.50;;;;;;5015679;28;20041;-88
2020/12/22 07:49:39;;;;;;;6.65;2.22;;;13.00;93.60;;;;;;5015347;28;20037;-88
2020/12/22 07:52:04;;;;;;;9.73;1.90;;;13.00;93.60;;;;;;5009876;28;20033;-89
2020/12/22 07:54:31;;;;;;;9.32;1.85;;;13.00;93.60;;;;;;5016193;28;20030;-88
2020/12/22 07:57:00;;;;;;;4.05;1.23;;;13.00;93.60;;;;;;5014676;28;20030;-88
2020/12/22 07:59:27;;;;;;;10.20;1.90;;;12.90;93.70;;;;;;4999155;28;20107;-87
2020/12/22 08:01:53;;;;;;;7.38;1.75;;;12.90;93.80;;;;;;5013546;28;20026;-88
2020/12/22 08:04:22;;;;;;;10.77;2.53;;;12.80;93.80;;;;;;5009564;28;20032;-86
2020/12/22 08:07:08;;;;;;;8.13;2.40;;;12.80;93.90;;;;;;4995461;28;20048;-86
2020/12/22 08:09:35;;;;;;;5.85;1.58;;;12.80;93.90;;;;;;5008563;28;20022;-85
2020/12/22 08:12:04;;;;;;;6.68;1.25;;;12.80;93.90;;;;;;5010248;28;20022;-86
2020/12/22 08:14:31;;;;;;;5.88;1.10;;;12.80;93.70;;;;;;5009802;28;20075;-88
2020/12/22 08:17:01;;;;;;;9.25;1.05;;;12.80;93.70;;;;;;4984411;28;20037;-87
2020/12/22 08:19:31;;;;;;;10.55;1.05;;;12.80;93.60;;;;;;4996142;28;20090;-87
2020/12/22 08:21:59;;;;;;;6.53;0.80;;;12.70;93.70;;;;;;4997602;28;20030;-87
2020/12/22 08:24:27;;;;;;;8.13;0.60;;;12.70;93.90;;;;;;4999129;28;20032;-88
2020/12/22 08:26:53;;;;;;;5.90;0.50;;;12.70;93.90;;;;;;5014001;28;20038;-88
2020/12/22 08:29:19;;;;;;;6.07;0.55;;;12.70;93.80;;;;;;4996370;28;20030;-88
2020/12/22 08:31:45;;;;;;;6.53;0.68;;;12.70;93.70;;;;;;4988450;28;20368;-87
2020/12/22 08:34:14;;;;;;;6.53;0.70;;;12.70;93.50;;;;;;4988536;28;20022;-88
2020/12/22 08:36:42;;;;;;;9.85;1.20;;;12.60;93.70;;;;;;4993311;28;20109;-87
2020/12/22 08:39:12;;;;;;;8.13;0.60;;;12.50;94.00;;;;;;4993041;28;20048;-91
2020/12/22 08:41:40;;;;;;;5.57;0.68;;;12.40;94.20;;;;;;4994849;28;20025;-89
2020/12/22 08:44:06;;;;;;;6.63;0.50;;;12.40;94.40;;;;;;5002730;28;20026;-89
2020/12/22 08:46:31;;;;;;;6.60;0.60;;;12.40;94.40;;;;;;4996398;28;20046;-89
2020/12/22 08:49:11;;;;;;;6.85;1.33;;;12.50;94.40;;;;;;4996544;28;20018;-89
2020/12/22 08:51:37;;;;;;;5.88;0.50;;;12.50;94.40;;;;;;5012904;28;20026;-88
2020/12/22 08:54:03;;;;;;;8.40;1.00;;;12.50;94.40;;;;;;5012667;28;20163;-89
2020/12/22 08:56:29;;;;;;;8.07;0.65;;;12.60;94.40;;;;;;4996443;28;20030;-91
2020/12/22 08:58:59;;;;;;;8.32;0.70;;;12.60;94.70;;;;;;4979987;28;20043;-91
2020/12/22 09:01:46;;;;;;;4.78;0.45;;;12.60;94.30;;;;;;4992897;28;20034;-90
2020/12/22 09:04:14;;;;;;;6.40;0.75;;;12.60;94.30;;;;;;4994522;28;20034;-89
2020/12/22 09:06:46;;;;;;;9.75;1.10;;;12.70;94.30;;;;;;4998346;28;20101;-89
2020/12/22 09:09:16;;;;;;;10.13;0.70;;;12.70;94.30;;;;;;4996152;28;20033;-89
2020/12/22 09:11:45;;;;;;;9.93;0.68;;;12.70;94.20;;;;;;5008094;28;20026;-88
2020/12/22 09:14:13;;;;;;;7.43;0.70;;;12.80;94.10;;;;;;4981878;28;20125;-90
2020/12/22 09:16:49;;;;;;;8.73;0.73;;;12.80;94.10;;;;;;4993557;28;20036;-88
2020/12/22 09:19:20;;;;;;;3.55;0.38;;;12.80;94.10;;;;;;5000893;28;20022;-88
2020/12/22 09:21:46;;;;;;;9.73;0.80;;;12.80;94.00;;;;;;5007910;28;20034;-88
2020/12/22 09:24:16;;;;;;;8.50;0.93;;;12.70;94.00;;;;;;4992660;28;20045;-88
2020/12/22 09:26:52;;;;;;;10.98;1.13;;;12.50;94.20;;;;;;5012181;28;20041;-88
2020/12/22 09:29:18;;;;;;;7.25;1.15;;;12.50;94.50;;;;;;5000748;28;20041;-88
2020/12/22 09:31:43;;;;;;;6.72;0.95;;;12.50;94.80;;;;;;4996534;28;20022;-88
2020/12/22 09:34:09;;;;;;;9.70;1.63;;;12.50;94.90;;;;;;4999263;28;20037;-88
2020/12/22 09:36:34;;;;;;;8.13;1.08;;;12.50;94.90;;;;;;4998173;28;20121;-88
2020/12/22 09:39:00;;;;;;;9.52;1.33;;;12.50;94.90;;;;;;5001332;28;20025;-88
2020/12/22 09:41:26;;;;;;;8.48;1.23;;;12.60;95.00;;;;;;5001491;28;20048;-87
2020/12/22 09:43:51;;;;;;;9.10;1.10;;;12.60;95.10;;;;;;5000420;28;20034;-88
2020/12/22 09:46:17;;;;;;;10.27;1.27;;;12.50;95.10;;;;;;5015759;28;20501;-88
2020/12/22 09:48:42;;;;;;;8.73;1.25;;;12.60;95.10;;;;;;4998801;28;20084;-88
2020/12/22 09:51:14;;;;;;;8.05;1.45;;;12.60;95.10;;;;;;4991623;28;20025;-88
2020/12/22 09:53:39;;;;;;;10.50;1.73;;;12.60;95.10;;;;;;5000421;28;20026;-88
2020/12/22 09:56:05;;;;;;;8.98;1.02;;;12.70;95.10;;;;;;4996925;28;20030;-88
2020/12/22 09:58:31;;;;;;;9.50;1.00;;;12.70;95.00;;;;;;5000288;28;20057;-88
2020/12/22 10:00:56;;;;;;;10.50;1.20;;;12.70;94.90;;;;;;5000825;28;20014;-88
2020/12/22 10:03:22;;;;;;;6.20;0.75;;;12.70;94.80;;;;;;4999294;28;20030;-87
2020/12/22 10:05:48;;;;;;;7.47;0.95;;;12.70;94.80;;;;;;5001113;28;20037;-88
2020/12/22 10:08:14;;;;;;;6.50;0.70;;;12.80;94.80;;;;;;4982244;28;20445;-89
2020/12/22 10:10:39;;;;;;;8.00;0.90;;;12.80;94.70;;;;;;5000389;28;20109;-88
2020/12/22 10:13:05;;;;;;;8.07;0.98;;;12.80;94.80;;;;;;5000724;28;20072;-88
2020/12/22 10:15:30;;;;;;;6.88;0.60;;;12.80;94.60;;;;;;4994704;28;20022;-89
2020/12/22 10:17:56;;;;;;;9.32;0.70;;;12.80;94.50;;;;;;4998066;28;20030;-88
2020/12/22 10:20:21;;;;;;;3.17;0.45;;;12.80;94.50;;;;;;4981721;28;20029;-88
2020/12/22 10:22:47;;;;;;;9.02;0.50;;;12.80;94.40;;;;;;4980949;28;20034;-87
2020/12/22 10:25:12;;;;;;;5.57;0.73;;;12.70;94.40;;;;;;4997866;28;20026;-88
2020/12/22 10:27:38;;;;;;;4.85;0.40;;;12.70;94.50;;;;;;4999163;28;20042;-87
2020/12/22 10:30:04;;;;;;;7.00;0.60;;;12.70;94.50;;;;;;4994881;28;20018;-87
2020/12/22 10:32:30;;;;;;;4.30;0.75;;;12.70;94.50;;;;;;4998546;28;20088;-87
2020/12/22 10:34:56;;;;;;;5.35;0.70;;;12.70;94.50;;;;;;4999818;28;20636;-89
2020/12/22 10:37:22;;;;;;;4.40;0.60;;;12.70;94.40;;;;;;4999658;28;20032;-88
2020/12/22 10:39:51;;;;;;;3.75;0.63;;;12.60;94.40;;;;;;5002118;28;20033;-88
2020/12/22 10:42:19;;;;;;;6.40;0.70;;;12.60;94.60;;;;;;4999373;28;20026;-87
2020/12/22 10:44:45;;;;;;;7.45;1.27;;;12.50;94.70;;;;;;5006877;28;20022;-88
2020/12/22 10:47:11;;;;;;;4.40;0.93;;;12.60;94.80;;;;;;5010372;28;20097;-87
2020/12/22 10:49:36;;;;;;;7.57;1.33;;;12.50;94.80;;;;;;5011258;28;20160;-86
2020/12/22 10:52:02;;;;;;;7.95;1.20;;;12.60;94.80;;;;;;5016780;28;20096;-87
2020/12/22 10:54:28;;;;;;;8.32;1.20;;;12.60;94.80;;;;;;5000138;28;20477;-87
2020/12/22 10:56:53;;;;;;;8.23;1.52;;;12.60;94.80;;;;;;5017303;28;20029;-87
2020/12/22 10:59:19;;;;;;;8.13;1.08;;;12.70;94.70;;;;;;4999337;28;20030;-88
2020/12/22 11:01:47;;;;;;;8.35;1.30;;;12.70;94.60;;;;;;5018551;28;20032;-87
2020/12/22 11:04:13;;;;;;;11.85;1.88;;;12.60;94.50;;;;;;5005123;28;20022;-87
2020/12/22 11:06:48;;;;;;;11.18;1.70;;;12.60;94.50;;;;;;5000066;28;20541;-88
2020/12/22 11:09:14;;;;;;;6.72;1.52;;;12.60;94.50;;;;;;4995757;28;20455;-87
2020/12/22 11:11:47;;;;;;;9.23;1.45;;;12.50;94.80;;;;;;4999192;28;20033;-87
2020/12/22 11:14:13;;;;;;;;;;;12.50;94.70;;;;;;4994022;28;20026;-87
2020/12/22 11:16:38;;;;;;;8.88;1.27;;;12.50;94.60;;;;;;4982324;28;19909;-87
2020/12/22 11:19:04;;;;;;;7.40;1.10;;;12.50;94.70;;;;;;4997764;28;20026;-87
2020/12/22 11:21:29;;;;;;;12.77;1.00;;;12.50;94.60;;;;;;5005463;28;20033;-87
2020/12/22 11:23:56;;;;;;;7.20;1.00;;;12.50;94.50;;;;;;4998073;28;20025;-87
2020/12/22 11:26:25;;;;;;;7.57;0.85;;;12.60;94.50;;;;;;4997733;28;20553;-87
2020/12/22 11:28:51;;;;;;;9.80;0.90;;;12.60;94.30;;;;;;4998221;28;20037;-87
2020/12/22 11:31:18;;;;;;;10.02;0.65;;;12.60;94.20;;;;;;4987612;28;20018;-88
2020/12/22 11:33:43;;;;;;;8.32;0.85;;;12.60;94.10;;;;;;4981102;28;20034;-88
2020/12/22 11:36:12;;;;;;;7.15;0.90;;;12.50;94.00;;;;;;4987078;28;20018;-88
2020/12/22 11:38:38;;;;;;;8.95;0.98;;;12.40;94.10;;;;;;4977482;28;20389;-87
2020/12/22 11:41:04;;;;;;;5.53;0.73;;;12.30;94.20;;;;;;4997443;28;20102;-87
2020/12/22 11:43:30;;;;;;;17.08;1.88;;;12.20;94.40;;;;;;4979206;28;20121;-87
2020/12/22 11:45:55;;;;;;;8.23;0.95;;;12.10;94.60;;;;;;4982714;28;20054;-87
2020/12/22 11:48:24;;;;;;;11.30;1.77;;;12.10;94.80;;;;;;4996906;28;20036;-88
2020/12/22 11:50:55;;;;;;;10.43;2.85;;;12.10;94.90;;;;;;4995273;28;20022;-87
2020/12/22 11:53:21;;;;;;;18.50;6.35;;;12.00;94.90;;;;;;5008307;28;20038;-87
2020/12/22 11:55:47;;;;;;;15.73;6.25;;;12.00;94.80;;;;;;5003296;28;20046;-87
2020/12/22 11:58:12;;;;;;;10.88;4.03;;;11.90;94.80;;;;;;4998942;28;20038;-87
2020/12/22 12:00:38;;;;;;;7.25;1.58;;;11.80;94.70;;;;;;4998990;28;20087;-87
2020/12/22 12:03:03;;;;;;;2.85;0.70;;;11.70;94.70;;;;;;4998569;28;20394;-86
2020/12/22 12:05:29;;;;;;;3.65;0.60;;;11.60;94.60;;;;;;4995581;28;20118;-88
2020/12/22 12:07:54;;;;;;;3.30;0.57;;;11.40;94.60;;;;;;4988949;28;20033;-88
2020/12/22 12:10:20;;;;;;;2.85;0.60;;;11.30;94.60;;;;;;4997959;28;20053;-87
2020/12/22 12:12:45;;;;;;;2.20;0.52;;;11.20;94.90;;;;;;5002073;28;20022;-88
2020/12/22 12:15:11;;;;;;;1.00;0.43;;;11.20;95.00;;;;;;4999391;28;20029;-88
2020/12/22 12:17:38;;;;;;;4.25;0.70;;;11.10;95.00;;;;;;4996444;28;20026;-88
2020/12/22 12:20:04;;;;;;;3.53;1.15;;;11.10;95.00;;;;;;4998798;28;20486;-88
2020/12/22 12:22:30;;;;;;;3.53;0.95;;;11.00;95.10;;;;;;4998479;28;20052;-89
2020/12/22 12:24:55;;;;;;;6.05;1.77;;;11.00;95.10;;;;;;5015079;28;20537;-88
2020/12/22 12:27:21;;;;;;;5.30;2.00;;;11.00;95.10;;;;;;4997968;28;20481;-88
2020/12/22 12:29:46;;;;;;;4.53;2.50;;;10.90;95.00;;;;;;4997121;28;20100;-87
2020/12/22 12:32:12;;;;;;;6.28;2.42;;;10.90;95.10;;;;;;4998397;28;20379;-88
2020/12/22 12:34:37;;;;;;;7.47;3.40;;;10.90;95.10;;;;;;4991412;28;20048;-88
2020/12/22 12:37:03;;;;;;;8.05;2.97;;;10.90;95.00;;;;;;4995847;28;20025;-87
2020/12/22 12:39:28;;;;;;;10.73;3.15;;;10.90;95.00;;;;;;4997324;28;20042;-89
2020/12/22 12:41:54;;;;;;;8.02;3.10;;;10.80;95.00;;;;;;4999845;28;20022;-89
2020/12/22 12:44:19;;;;;;;11.55;4.38;;;10.90;95.10;;;;;;4994022;28;20026;-88